Flight Track Log - Related Links

Times and Time Zones

All times are in EDT time to prevent confusion due to time zone crossing. See the N814TB flight status page for this flight to view local times or setup timezone preferences in your user account.

Time Position Orientation Groundspeed Altitude Reporting Facility
EDT Latitude Longitude Course Direction KTS MPH feet Rate Location/Type
Sun 01:45:50 PM 39.9050 -104.7169 337° Northwest 157 181 16,000  Level Denver Center
Sun 01:46:52 PM 39.9542 -104.7447 337° Northwest 204 235 8,600 -2,758 Descending Denver Center
Sun 01:47:54 PM 40.0078 -104.7725 338° Northwest 193 222 10,300 1,161 Climbing Denver Center
Sun 01:48:56 PM 40.0597 -104.8008 337° Northwest 201 231 11,000 532 Climbing Denver Center
Sun 01:49:58 PM 40.1242 -104.8286 342° North 223 257 11,400 432 Climbing Denver Center
Sun 01:51:01 PM 40.1842 -104.8503 345° North 224 258 11,900 288 Climbing Denver Center
Sun 01:52:03 PM 40.2508 -104.8753 344° North 230 265 12,000 581 Climbing Denver Center
Sun 01:53:05 PM 40.3122 -104.8983 339° North 229 264 13,100 1,306 Climbing Denver Center
Sun 01:54:07 PM 40.3672 -104.9200 343° North 195 224 14,700 1,452 Climbing Denver Center
Sun 01:55:09 PM 40.4136 -104.9369 344° North 177 204 16,100 1,355 Climbing Denver Center
Sun 01:56:11 PM 40.4569 -104.9547 343° North 163 188 17,500 1,210 Climbing Denver Center
Sun 01:57:13 PM 40.5028 -104.9717 344° North 159 183 18,600 1,065 Climbing Denver Center
Sun 01:58:15 PM 40.5456 -104.9875 344° North 161 185 19,700 677 Climbing Denver Center
Sun 01:59:17 PM 40.5978 -105.0072 344° North 182 209 20,000 145 Climbing Denver Center
Sun 02:00:19 PM 40.6556 -105.0272 345° North 218 251 20,000  Level Denver Center
Sun 02:01:21 PM 40.7189 -105.0522 343° North 220 253 20,000  Level Denver Center
Sun 02:02:23 PM 40.7742 -105.0753 342° North 212 244 20,000  Level Denver Center
Sun 02:03:25 PM 40.8172 -105.1250 319° Northwest 214 246 20,000  Level Denver Center
Sun 02:04:27 PM 40.8664 -105.1731 324° Northwest 226 260 20,000  Level Denver Center
Sun 02:05:29 PM 40.9258 -105.2208 329° Northwest 225 259 20,000  Level Denver Center
Sun 02:06:31 PM 40.9844 -105.2697 328° Northwest 223 257 20,000  Level Denver Center
Sun 02:07:33 PM 41.0275 -105.3047 328° Northwest 225 259 20,000  Level Denver Center
Sun 02:08:36 PM 41.0861 -105.3789 316° Northwest 227 261 20,000  Level Denver Center
Sun 02:09:38 PM 41.1275 -105.4319 316° Northwest 223 257 20,000  Level Denver Center
Sun 02:10:40 PM 41.1758 -105.4992 314° West 224 258 20,000  Level Denver Center
Sun 02:11:42 PM 41.2000 -105.5717 294° West 238 274 20,000  Level Denver Center
Sun 02:12:44 PM 41.2178 -105.6642 284° West 231 266 20,000  Level Denver Center
Sun 02:13:46 PM 41.2328 -105.7450 284° West 235 270 20,000  Level Denver Center
Sun 02:15:00 PM 41.2461 -105.8512 280° West  Level FlightAware Approximate
Sun 02:15:50 PM 41.2572 -105.9283 280° West 243 280 20,000  Level Denver Center
Sun 02:16:52 PM 41.2683 -106.0103 280° West 236 272 20,000  Level Denver Center
Sun 02:17:54 PM 41.2892 -106.1019 287° West 231 266 20,000 -339 Level Denver Center
Sun 02:18:56 PM 41.3150 -106.1692 297° West 213 245 19,300 -1,016 Descending Denver Center
Sun 02:19:58 PM 41.3356 -106.2361 292° West 177 204 17,900 -1,403 Descending Denver Center
Sun 02:21:00 PM 41.3564 -106.2864 299° West 166 191 16,400 -1,440 Descending Denver Center
Sun 02:22:03 PM 41.3647 -106.3525 280° West 167 192 14,900 -1,200 Descending Denver Center
Sun 02:23:05 PM 41.3578 -106.4050 260° West 162 186 13,900 -968 Descending Denver Center

Login

Don't have an account? Register now (free) for customized features, flight alerts, and more!